sensor_id;sensor_type;location;lat;lon;timestamp;temperature;humidity
6758;DHT22;3416;53.074;8.822;2023-04-10T00:01:52;8.80;99.90
6758;DHT22;3416;53.074;8.822;2023-04-10T00:04:19;8.70;99.90
6758;DHT22;3416;53.074;8.822;2023-04-10T00:06:46;8.70;99.90
6758;DHT22;3416;53.074;8.822;2023-04-10T00:09:13;8.80;99.90
6758;DHT22;3416;53.074;8.822;2023-04-10T00:11:40;8.90;99.90
6758;DHT22;3416;53.074;8.822;2023-04-10T00:14:08;8.90;99.90
6758;DHT22;3416;53.074;8.822;2023-04-10T00:16:35;8.80;99.90
6758;DHT22;3416;53.074;8.822;2023-04-10T00:19:02;8.90;99.90
6758;DHT22;3416;53.074;8.822;2023-04-10T00:21:29;8.80;99.90
6758;DHT22;3416;53.074;8.822;2023-04-10T00:23:56;8.80;99.90
6758;DHT22;3416;53.074;8.822;2023-04-10T00:26:23;8.80;99.90
6758;DHT22;3416;53.074;8.822;2023-04-10T00:28:51;8.80;99.90
6758;DHT22;3416;53.074;8.822;2023-04-10T00:31:19;8.80;99.90
6758;DHT22;3416;53.074;8.822;2023-04-10T00:33:46;8.80;99.90
6758;DHT22;3416;53.074;8.822;2023-04-10T00:36:13;8.70;99.90
6758;DHT22;3416;53.074;8.822;2023-04-10T00:38:40;8.70;99.90
6758;DHT22;3416;53.074;8.822;2023-04-10T00:41:07;8.70;99.90
6758;DHT22;3416;53.074;8.822;2023-04-10T00:43:34;8.70;99.90
6758;DHT22;3416;53.074;8.822;2023-04-10T00:46:00;8.80;99.90
6758;DHT22;3416;53.074;8.822;2023-04-10T00:48:29;8.70;99.90
6758;DHT22;3416;53.074;8.822;2023-04-10T00:50:56;8.70;99.90
6758;DHT22;3416;53.074;8.822;2023-04-10T00:53:23;8.70;99.90
6758;DHT22;3416;53.074;8.822;2023-04-10T00:55:50;8.60;99.90
6758;DHT22;3416;53.074;8.822;2023-04-10T00:58:17;8.50;99.90
6758;DHT22;3416;53.074;8.822;2023-04-10T01:00:45;8.50;99.90
6758;DHT22;3416;53.074;8.822;2023-04-10T01:03:15;8.50;99.90
6758;DHT22;3416;53.074;8.822;2023-04-10T01:05:52;8.40;99.90
6758;DHT22;3416;53.074;8.822;2023-04-10T01:08:30;8.50;99.90
6758;DHT22;3416;53.074;8.822;2023-04-10T01:11:06;8.40;99.90
6758;DHT22;3416;53.074;8.822;2023-04-10T01:13:42;8.40;99.90
6758;DHT22;3416;53.074;8.822;2023-04-10T01:16:17;8.40;99.90
6758;DHT22;3416;53.074;8.822;2023-04-10T01:18:49;8.30;99.90
6758;DHT22;3416;53.074;8.822;2023-04-10T01:21:20;8.30;99.90
6758;DHT22;3416;53.074;8.822;2023-04-10T01:24:00;8.30;99.90
6758;DHT22;3416;53.074;8.822;2023-04-10T01:26:41;8.30;99.90
6758;DHT22;3416;53.074;8.822;2023-04-10T01:29:14;8.30;99.90
6758;DHT22;3416;53.074;8.822;2023-04-10T01:31:49;8.30;99.90
6758;DHT22;3416;53.074;8.822;2023-04-10T01:34:22;8.30;99.90
6758;DHT22;3416;53.074;8.822;2023-04-10T01:36:54;8.30;99.90
6758;DHT22;3416;53.074;8.822;2023-04-10T01:39:23;8.20;99.90
6758;DHT22;3416;53.074;8.822;2023-04-10T01:41:53;8.30;99.90
6758;DHT22;3416;53.074;8.822;2023-04-10T01:44:27;8.30;99.90
6758;DHT22;3416;53.074;8.822;2023-04-10T01:46:55;8.20;99.90
6758;DHT22;3416;53.074;8.822;2023-04-10T01:49:25;8.30;99.90
6758;DHT22;3416;53.074;8.822;2023-04-10T01:51:53;8.20;99.90
6758;DHT22;3416;53.074;8.822;2023-04-10T01:54:23;8.20;99.90
6758;DHT22;3416;53.074;8.822;2023-04-10T01:56:51;8.20;99.90
6758;DHT22;3416;53.074;8.822;2023-04-10T01:59:18;8.20;99.90
6758;DHT22;3416;53.074;8.822;2023-04-10T02:01:47;8.30;99.90
6758;DHT22;3416;53.074;8.822;2023-04-10T02:04:13;8.10;99.90
6758;DHT22;3416;53.074;8.822;2023-04-10T02:06:46;8.30;99.90
6758;DHT22;3416;53.074;8.822;2023-04-10T02:09:18;8.20;99.90
6758;DHT22;3416;53.074;8.822;2023-04-10T02:11:48;8.10;99.90
6758;DHT22;3416;53.074;8.822;2023-04-10T02:14:19;8.10;99.90
6758;DHT22;3416;53.074;8.822;2023-04-10T02:16:51;8.00;99.90
6758;DHT22;3416;53.074;8.822;2023-04-10T02:19:19;8.00;99.90
6758;DHT22;3416;53.074;8.822;2023-04-10T02:21:49;8.00;99.90
6758;DHT22;3416;53.074;8.822;2023-04-10T02:24:16;8.00;99.90
6758;DHT22;3416;53.074;8.822;2023-04-10T02:26:44;7.90;99.90
6758;DHT22;3416;53.074;8.822;2023-04-10T02:29:11;7.90;99.90
6758;DHT22;3416;53.074;8.822;2023-04-10T02:31:38;7.80;99.90
6758;DHT22;3416;53.074;8.822;2023-04-10T02:34:06;7.80;99.90
6758;DHT22;3416;53.074;8.822;2023-04-10T02:36:34;7.80;99.90
6758;DHT22;3416;53.074;8.822;2023-04-10T02:39:01;7.80;99.90
6758;DHT22;3416;53.074;8.822;2023-04-10T02:41:29;7.70;99.90
6758;DHT22;3416;53.074;8.822;2023-04-10T02:43:56;7.60;99.90
6758;DHT22;3416;53.074;8.822;2023-04-10T02:46:23;7.60;99.90
6758;DHT22;3416;53.074;8.822;2023-04-10T02:48:50;7.60;99.90
6758;DHT22;3416;53.074;8.822;2023-04-10T02:51:19;7.60;99.90
6758;DHT22;3416;53.074;8.822;2023-04-10T02:53:47;7.50;99.90
6758;DHT22;3416;53.074;8.822;2023-04-10T02:56:14;7.50;99.90
6758;DHT22;3416;53.074;8.822;2023-04-10T02:58:40;7.40;99.90
6758;DHT22;3416;53.074;8.822;2023-04-10T03:01:11;7.50;99.90
6758;DHT22;3416;53.074;8.822;2023-04-10T03:03:38;7.40;99.90
6758;DHT22;3416;53.074;8.822;2023-04-10T03:06:05;7.40;99.90
6758;DHT22;3416;53.074;8.822;2023-04-10T03:08:33;7.40;99.90
6758;DHT22;3416;53.074;8.822;2023-04-10T03:11:00;7.40;99.90
6758;DHT22;3416;53.074;8.822;2023-04-10T03:13:27;7.40;99.90
6758;DHT22;3416;53.074;8.822;2023-04-10T03:15:54;7.30;99.90
6758;DHT22;3416;53.074;8.822;2023-04-10T03:18:21;7.30;99.90
6758;DHT22;3416;53.074;8.822;2023-04-10T03:20:48;7.30;99.90
6758;DHT22;3416;53.074;8.822;2023-04-10T03:23:15;7.30;99.90
6758;DHT22;3416;53.074;8.822;2023-04-10T03:25:43;7.20;99.90
6758;DHT22;3416;53.074;8.822;2023-04-10T03:28:10;7.20;99.90
6758;DHT22;3416;53.074;8.822;2023-04-10T03:30:37;7.20;99.90
6758;DHT22;3416;53.074;8.822;2023-04-10T03:33:04;7.20;99.90
6758;DHT22;3416;53.074;8.822;2023-04-10T03:35:31;7.20;99.90
6758;DHT22;3416;53.074;8.822;2023-04-10T03:37:58;7.20;99.90
6758;DHT22;3416;53.074;8.822;2023-04-10T03:40:25;7.20;99.90
6758;DHT22;3416;53.074;8.822;2023-04-10T03:42:53;7.10;99.90
6758;DHT22;3416;53.074;8.822;2023-04-10T03:45:20;7.10;99.90
6758;DHT22;3416;53.074;8.822;2023-04-10T03:47:48;7.10;99.90
6758;DHT22;3416;53.074;8.822;2023-04-10T03:50:15;7.10;99.90
6758;DHT22;3416;53.074;8.822;2023-04-10T03:52:43;7.10;99.90
6758;DHT22;3416;53.074;8.822;2023-04-10T03:55:10;7.10;99.90
6758;DHT22;3416;53.074;8.822;2023-04-10T03:57:37;7.10;99.90
6758;DHT22;3416;53.074;8.822;2023-04-10T04:00:06;7.00;99.90
6758;DHT22;3416;53.074;8.822;2023-04-10T04:02:33;7.00;99.90
6758;DHT22;3416;53.074;8.822;2023-04-10T04:05:00;6.90;99.90
6758;DHT22;3416;53.074;8.822;2023-04-10T04:07:27;7.00;99.90
6758;DHT22;3416;53.074;8.822;2023-04-10T04:09:54;6.90;99.90
6758;DHT22;3416;53.074;8.822;2023-04-10T04:12:21;7.00;99.90
6758;DHT22;3416;53.074;8.822;2023-04-10T04:14:48;7.00;99.90
6758;DHT22;3416;53.074;8.822;2023-04-10T04:17:16;7.00;99.90
6758;DHT22;3416;53.074;8.822;2023-04-10T04:19:43;7.00;99.90
6758;DHT22;3416;53.074;8.822;2023-04-10T04:22:10;7.00;99.90
6758;DHT22;3416;53.074;8.822;2023-04-10T04:24:37;7.10;99.90
6758;DHT22;3416;53.074;8.822;2023-04-10T04:27:04;7.00;99.90
6758;DHT22;3416;53.074;8.822;2023-04-10T04:29:30;7.00;99.90
6758;DHT22;3416;53.074;8.822;2023-04-10T04:31:57;7.00;99.90
6758;DHT22;3416;53.074;8.822;2023-04-10T04:34:25;7.00;99.90
6758;DHT22;3416;53.074;8.822;2023-04-10T04:36:52;7.00;99.90
6758;DHT22;3416;53.074;8.822;2023-04-10T04:39:19;7.00;99.90
6758;DHT22;3416;53.074;8.822;2023-04-10T04:41:47;7.00;99.90
6758;DHT22;3416;53.074;8.822;2023-04-10T04:44:16;7.10;99.90
6758;DHT22;3416;53.074;8.822;2023-04-10T04:46:50;7.10;99.90
6758;DHT22;3416;53.074;8.822;2023-04-10T04:49:17;7.10;99.90
6758;DHT22;3416;53.074;8.822;2023-04-10T04:51:45;7.10;99.90
6758;DHT22;3416;53.074;8.822;2023-04-10T04:54:12;7.20;99.90
6758;DHT22;3416;53.074;8.822;2023-04-10T04:56:39;7.20;99.90
6758;DHT22;3416;53.074;8.822;2023-04-10T04:59:06;7.30;99.90
6758;DHT22;3416;53.074;8.822;2023-04-10T05:01:33;7.30;99.90
6758;DHT22;3416;53.074;8.822;2023-04-10T05:03:59;7.20;99.90
6758;DHT22;3416;53.074;8.822;2023-04-10T05:06:26;7.30;99.90
6758;DHT22;3416;53.074;8.822;2023-04-10T05:08:55;7.30;99.90
6758;DHT22;3416;53.074;8.822;2023-04-10T05:11:23;7.40;99.90
6758;DHT22;3416;53.074;8.822;2023-04-10T05:13:49;7.40;99.90
6758;DHT22;3416;53.074;8.822;2023-04-10T05:16:16;7.50;99.90
6758;DHT22;3416;53.074;8.822;2023-04-10T05:18:43;7.50;99.90
6758;DHT22;3416;53.074;8.822;2023-04-10T05:21:10;7.60;99.90
6758;DHT22;3416;53.074;8.822;2023-04-10T05:23:37;7.60;99.90
6758;DHT22;3416;53.074;8.822;2023-04-10T05:26:07;7.70;99.90
6758;DHT22;3416;53.074;8.822;2023-04-10T05:28:34;7.70;99.90
6758;DHT22;3416;53.074;8.822;2023-04-10T05:31:00;7.80;99.90
6758;DHT22;3416;53.074;8.822;2023-04-10T05:33:27;7.90;99.90
6758;DHT22;3416;53.074;8.822;2023-04-10T05:35:54;8.10;99.90
6758;DHT22;3416;53.074;8.822;2023-04-10T05:38:21;8.20;99.90
6758;DHT22;3416;53.074;8.822;2023-04-10T05:40:49;8.20;99.90
6758;DHT22;3416;53.074;8.822;2023-04-10T05:43:18;8.50;99.90
6758;DHT22;3416;53.074;8.822;2023-04-10T05:45:46;8.70;99.90
6758;DHT22;3416;53.074;8.822;2023-04-10T05:48:13;9.00;99.90
6758;DHT22;3416;53.074;8.822;2023-04-10T05:50:40;9.20;99.90
6758;DHT22;3416;53.074;8.822;2023-04-10T05:53:11;9.40;99.90
6758;DHT22;3416;53.074;8.822;2023-04-10T05:55:38;9.50;99.90
6758;DHT22;3416;53.074;8.822;2023-04-10T05:58:06;9.60;99.90
6758;DHT22;3416;53.074;8.822;2023-04-10T06:00:34;9.60;99.90
6758;DHT22;3416;53.074;8.822;2023-04-10T06:03:01;9.60;99.90
6758;DHT22;3416;53.074;8.822;2023-04-10T06:05:29;9.70;99.90
6758;DHT22;3416;53.074;8.822;2023-04-10T06:07:56;10.10;99.90
6758;DHT22;3416;53.074;8.822;2023-04-10T06:10:23;10.50;99.90
6758;DHT22;3416;53.074;8.822;2023-04-10T06:12:50;11.00;99.90
6758;DHT22;3416;53.074;8.822;2023-04-10T06:15:17;11.30;99.90
6758;DHT22;3416;53.074;8.822;2023-04-10T06:17:45;11.40;99.90
6758;DHT22;3416;53.074;8.822;2023-04-10T06:20:12;11.60;99.90
6758;DHT22;3416;53.074;8.822;2023-04-10T06:22:39;11.70;99.90
6758;DHT22;3416;53.074;8.822;2023-04-10T06:25:06;12.00;99.90
6758;DHT22;3416;53.074;8.822;2023-04-10T06:27:33;12.50;99.90
6758;DHT22;3416;53.074;8.822;2023-04-10T06:30:01;13.00;99.90
6758;DHT22;3416;53.074;8.822;2023-04-10T06:32:28;13.60;99.90
6758;DHT22;3416;53.074;8.822;2023-04-10T06:34:56;14.10;99.90
6758;DHT22;3416;53.074;8.822;2023-04-10T06:37:27;14.40;99.70
6758;DHT22;3416;53.074;8.822;2023-04-10T06:40:02;14.80;98.10
6758;DHT22;3416;53.074;8.822;2023-04-10T06:42:29;15.00;97.30
6758;DHT22;3416;53.074;8.822;2023-04-10T06:44:56;15.10;96.60
6758;DHT22;3416;53.074;8.822;2023-04-10T06:47:23;15.30;95.80
6758;DHT22;3416;53.074;8.822;2023-04-10T06:49:50;15.40;95.70
6758;DHT22;3416;53.074;8.822;2023-04-10T06:52:18;16.10;95.20
6758;DHT22;3416;53.074;8.822;2023-04-10T06:54:45;16.60;93.10
6758;DHT22;3416;53.074;8.822;2023-04-10T06:57:12;16.90;92.60
6758;DHT22;3416;53.074;8.822;2023-04-10T06:59:39;17.30;91.80
6758;DHT22;3416;53.074;8.822;2023-04-10T07:02:07;17.40;91.20
6758;DHT22;3416;53.074;8.822;2023-04-10T07:04:34;17.60;90.60
6758;DHT22;3416;53.074;8.822;2023-04-10T07:07:01;17.60;90.40
6758;DHT22;3416;53.074;8.822;2023-04-10T07:09:29;18.10;90.20
6758;DHT22;3416;53.074;8.822;2023-04-10T07:11:56;18.40;89.60
6758;DHT22;3416;53.074;8.822;2023-04-10T07:14:23;18.90;88.10
6758;DHT22;3416;53.074;8.822;2023-04-10T07:16:50;19.00;87.00
6758;DHT22;3416;53.074;8.822;2023-04-10T07:19:18;19.00;86.90
6758;DHT22;3416;53.074;8.822;2023-04-10T07:21:45;19.50;86.10
6758;DHT22;3416;53.074;8.822;2023-04-10T07:24:14;19.30;85.80
6758;DHT22;3416;53.074;8.822;2023-04-10T07:26:43;19.80;84.10
6758;DHT22;3416;53.074;8.822;2023-04-10T07:29:10;20.10;83.50
6758;DHT22;3416;53.074;8.822;2023-04-10T07:31:38;20.20;82.60
6758;DHT22;3416;53.074;8.822;2023-04-10T07:34:05;20.20;83.30
6758;DHT22;3416;53.074;8.822;2023-04-10T07:36:32;20.60;82.10
6758;DHT22;3416;53.074;8.822;2023-04-10T07:39:00;21.00;81.10
6758;DHT22;3416;53.074;8.822;2023-04-10T07:41:27;21.60;79.80
6758;DHT22;3416;53.074;8.822;2023-04-10T07:43:55;21.40;78.80
6758;DHT22;3416;53.074;8.822;2023-04-10T07:46:22;21.50;78.80
6758;DHT22;3416;53.074;8.822;2023-04-10T07:48:49;21.40;78.30
6758;DHT22;3416;53.074;8.822;2023-04-10T07:51:16;21.70;78.50
6758;DHT22;3416;53.074;8.822;2023-04-10T07:53:43;22.00;78.00
6758;DHT22;3416;53.074;8.822;2023-04-10T07:56:14;21.80;77.50
6758;DHT22;3416;53.074;8.822;2023-04-10T07:58:42;21.80;76.90
6758;DHT22;3416;53.074;8.822;2023-04-10T08:01:11;22.00;77.30
6758;DHT22;3416;53.074;8.822;2023-04-10T08:03:38;22.40;76.90
6758;DHT22;3416;53.074;8.822;2023-04-10T08:06:06;22.60;75.70
6758;DHT22;3416;53.074;8.822;2023-04-10T08:08:35;22.60;75.20
6758;DHT22;3416;53.074;8.822;2023-04-10T08:11:03;23.00;75.60
6758;DHT22;3416;53.074;8.822;2023-04-10T08:13:30;23.20;74.10
6758;DHT22;3416;53.074;8.822;2023-04-10T08:15:57;23.30;74.50
6758;DHT22;3416;53.074;8.822;2023-04-10T08:18:26;23.30;72.40
6758;DHT22;3416;53.074;8.822;2023-04-10T08:20:52;23.30;72.70
6758;DHT22;3416;53.074;8.822;2023-04-10T08:23:19;23.90;70.80
6758;DHT22;3416;53.074;8.822;2023-04-10T08:25:47;23.80;70.30
6758;DHT22;3416;53.074;8.822;2023-04-10T08:28:14;24.00;70.00
6758;DHT22;3416;53.074;8.822;2023-04-10T08:30:41;24.10;69.20
6758;DHT22;3416;53.074;8.822;2023-04-10T08:33:08;23.40;69.90
6758;DHT22;3416;53.074;8.822;2023-04-10T08:35:36;23.70;70.50
6758;DHT22;3416;53.074;8.822;2023-04-10T08:38:03;23.20;71.30
6758;DHT22;3416;53.074;8.822;2023-04-10T08:40:30;23.60;71.20
6758;DHT22;3416;53.074;8.822;2023-04-10T08:42:57;23.40;71.00
6758;DHT22;3416;53.074;8.822;2023-04-10T08:45:24;23.30;71.30
6758;DHT22;3416;53.074;8.822;2023-04-10T08:47:51;23.10;72.10
6758;DHT22;3416;53.074;8.822;2023-04-10T08:50:21;23.60;70.90
6758;DHT22;3416;53.074;8.822;2023-04-10T08:52:51;24.20;71.10
6758;DHT22;3416;53.074;8.822;2023-04-10T08:55:20;24.90;69.20
6758;DHT22;3416;53.074;8.822;2023-04-10T08:57:47;23.80;67.50
6758;DHT22;3416;53.074;8.822;2023-04-10T09:00:15;24.10;68.10
6758;DHT22;3416;53.074;8.822;2023-04-10T09:02:42;23.80;68.30
6758;DHT22;3416;53.074;8.822;2023-04-10T09:05:10;23.80;68.40
6758;DHT22;3416;53.074;8.822;2023-04-10T09:07:38;23.30;67.10
6758;DHT22;3416;53.074;8.822;2023-04-10T09:10:08;23.50;69.30
6758;DHT22;3416;53.074;8.822;2023-04-10T09:12:45;23.40;69.40
6758;DHT22;3416;53.074;8.822;2023-04-10T09:15:12;23.30;69.50
6758;DHT22;3416;53.074;8.822;2023-04-10T09:17:55;23.50;68.50
6758;DHT22;3416;53.074;8.822;2023-04-10T09:20:24;23.80;68.00
6758;DHT22;3416;53.074;8.822;2023-04-10T09:22:51;23.20;66.40
6758;DHT22;3416;53.074;8.822;2023-04-10T09:25:31;23.10;66.90
6758;DHT22;3416;53.074;8.822;2023-04-10T09:28:02;23.60;66.50
6758;DHT22;3416;53.074;8.822;2023-04-10T09:30:34;23.20;66.10
6758;DHT22;3416;53.074;8.822;2023-04-10T09:33:02;23.00;65.50
6758;DHT22;3416;53.074;8.822;2023-04-10T09:35:38;23.00;65.00
6758;DHT22;3416;53.074;8.822;2023-04-10T09:38:15;22.60;64.00
6758;DHT22;3416;53.074;8.822;2023-04-10T09:40:45;22.80;63.70
6758;DHT22;3416;53.074;8.822;2023-04-10T09:43:20;22.20;64.80
6758;DHT22;3416;53.074;8.822;2023-04-10T09:45:59;22.40;66.50
6758;DHT22;3416;53.074;8.822;2023-04-10T09:48:26;21.80;64.60
6758;DHT22;3416;53.074;8.822;2023-04-10T09:50:53;22.20;64.80
6758;DHT22;3416;53.074;8.822;2023-04-10T09:53:21;21.60;64.90
6758;DHT22;3416;53.074;8.822;2023-04-10T09:55:48;21.70;66.00
6758;DHT22;3416;53.074;8.822;2023-04-10T09:58:16;21.80;66.40
6758;DHT22;3416;53.074;8.822;2023-04-10T10:00:46;21.50;65.50
6758;DHT22;3416;53.074;8.822;2023-04-10T10:03:15;21.30;65.00
6758;DHT22;3416;53.074;8.822;2023-04-10T10:05:46;21.20;65.70
6758;DHT22;3416;53.074;8.822;2023-04-10T10:08:15;21.50;65.60
6758;DHT22;3416;53.074;8.822;2023-04-10T10:10:45;21.80;66.40
6758;DHT22;3416;53.074;8.822;2023-04-10T10:13:15;22.70;65.30
6758;DHT22;3416;53.074;8.822;2023-04-10T10:15:45;21.90;64.90
6758;DHT22;3416;53.074;8.822;2023-04-10T10:18:21;21.20;65.40
6758;DHT22;3416;53.074;8.822;2023-04-10T10:20:52;21.30;65.30
6758;DHT22;3416;53.074;8.822;2023-04-10T10:23:20;21.40;65.40
6758;DHT22;3416;53.074;8.822;2023-04-10T10:25:48;21.00;65.90
6758;DHT22;3416;53.074;8.822;2023-04-10T10:28:17;20.90;66.00
6758;DHT22;3416;53.074;8.822;2023-04-10T10:30:45;20.30;65.50
6758;DHT22;3416;53.074;8.822;2023-04-10T10:33:13;20.30;66.50
6758;DHT22;3416;53.074;8.822;2023-04-10T10:35:42;20.60;65.90
6758;DHT22;3416;53.074;8.822;2023-04-10T10:38:09;20.10;65.30
6758;DHT22;3416;53.074;8.822;2023-04-10T10:40:43;20.20;65.70
6758;DHT22;3416;53.074;8.822;2023-04-10T10:43:15;20.20;66.70
6758;DHT22;3416;53.074;8.822;2023-04-10T10:45:49;19.80;67.30
6758;DHT22;3416;53.074;8.822;2023-04-10T10:48:18;19.50;67.70
6758;DHT22;3416;53.074;8.822;2023-04-10T10:50:53;19.10;68.00
6758;DHT22;3416;53.074;8.822;2023-04-10T10:53:35;19.30;68.50
6758;DHT22;3416;53.074;8.822;2023-04-10T10:56:34;19.10;69.30
6758;DHT22;3416;53.074;8.822;2023-04-10T10:59:02;19.20;70.00
6758;DHT22;3416;53.074;8.822;2023-04-10T11:01:29;19.10;69.10
6758;DHT22;3416;53.074;8.822;2023-04-10T11:03:56;19.10;69.10
6758;DHT22;3416;53.074;8.822;2023-04-10T11:06:50;19.30;69.50
6758;DHT22;3416;53.074;8.822;2023-04-10T11:09:45;19.20;69.80
6758;DHT22;3416;53.074;8.822;2023-04-10T11:12:13;19.50;70.40
6758;DHT22;3416;53.074;8.822;2023-04-10T11:14:41;19.50;69.70
6758;DHT22;3416;53.074;8.822;2023-04-10T11:17:09;19.10;70.10
6758;DHT22;3416;53.074;8.822;2023-04-10T11:19:56;19.00;70.00
6758;DHT22;3416;53.074;8.822;2023-04-10T11:22:26;19.00;69.60
6758;DHT22;3416;53.074;8.822;2023-04-10T11:24:58;18.80;69.30
6758;DHT22;3416;53.074;8.822;2023-04-10T11:27:38;18.90;69.10
6758;DHT22;3416;53.074;8.822;2023-04-10T11:30:24;19.00;67.90
6758;DHT22;3416;53.074;8.822;2023-04-10T11:32:51;19.00;68.10
6758;DHT22;3416;53.074;8.822;2023-04-10T11:35:18;19.10;68.20
6758;DHT22;3416;53.074;8.822;2023-04-10T11:37:47;19.40;68.90
6758;DHT22;3416;53.074;8.822;2023-04-10T11:40:14;19.40;69.10
6758;DHT22;3416;53.074;8.822;2023-04-10T11:42:41;19.40;68.90
6758;DHT22;3416;53.074;8.822;2023-04-10T11:45:27;19.30;68.90
6758;DHT22;3416;53.074;8.822;2023-04-10T11:47:54;19.20;69.10
6758;DHT22;3416;53.074;8.822;2023-04-10T11:50:21;19.30;68.90
6758;DHT22;3416;53.074;8.822;2023-04-10T11:52:50;19.30;68.80
6758;DHT22;3416;53.074;8.822;2023-04-10T11:55:17;19.30;68.50
6758;DHT22;3416;53.074;8.822;2023-04-10T11:57:44;19.20;69.00
6758;DHT22;3416;53.074;8.822;2023-04-10T12:00:21;19.00;69.30
6758;DHT22;3416;53.074;8.822;2023-04-10T12:02:50;18.80;69.40
6758;DHT22;3416;53.074;8.822;2023-04-10T12:05:18;18.80;69.00
6758;DHT22;3416;53.074;8.822;2023-04-10T12:07:47;18.50;69.10
6758;DHT22;3416;53.074;8.822;2023-04-10T12:10:16;18.50;69.40
6758;DHT22;3416;53.074;8.822;2023-04-10T12:12:43;18.60;69.30
6758;DHT22;3416;53.074;8.822;2023-04-10T12:15:26;18.50;69.50
6758;DHT22;3416;53.074;8.822;2023-04-10T12:17:54;18.60;70.00
6758;DHT22;3416;53.074;8.822;2023-04-10T12:20:21;18.70;70.00
6758;DHT22;3416;53.074;8.822;2023-04-10T12:22:53;19.00;69.80
6758;DHT22;3416;53.074;8.822;2023-04-10T12:25:27;19.00;69.10
6758;DHT22;3416;53.074;8.822;2023-04-10T12:27:54;19.10;69.20
6758;DHT22;3416;53.074;8.822;2023-04-10T12:30:21;19.20;69.30
6758;DHT22;3416;53.074;8.822;2023-04-10T12:32:51;19.60;69.60
6758;DHT22;3416;53.074;8.822;2023-04-10T12:35:19;19.80;67.70
6758;DHT22;3416;53.074;8.822;2023-04-10T12:37:48;19.60;67.30
6758;DHT22;3416;53.074;8.822;2023-04-10T12:40:15;19.90;67.10
6758;DHT22;3416;53.074;8.822;2023-04-10T12:42:45;19.90;67.90
6758;DHT22;3416;53.074;8.822;2023-04-10T12:45:44;19.90;66.80
6758;DHT22;3416;53.074;8.822;2023-04-10T12:48:11;19.80;66.90
6758;DHT22;3416;53.074;8.822;2023-04-10T12:50:48;19.50;66.30
6758;DHT22;3416;53.074;8.822;2023-04-10T12:53:15;19.30;66.90
6758;DHT22;3416;53.074;8.822;2023-04-10T12:55:56;19.30;67.40
6758;DHT22;3416;53.074;8.822;2023-04-10T12:58:25;19.30;67.20
6758;DHT22;3416;53.074;8.822;2023-04-10T13:00:54;19.00;67.00
6758;DHT22;3416;53.074;8.822;2023-04-10T13:03:21;19.20;67.80
6758;DHT22;3416;53.074;8.822;2023-04-10T13:05:49;19.40;67.80
6758;DHT22;3416;53.074;8.822;2023-04-10T13:08:16;19.30;67.30
6758;DHT22;3416;53.074;8.822;2023-04-10T13:10:43;19.30;67.00
6758;DHT22;3416;53.074;8.822;2023-04-10T13:13:10;19.50;66.80
6758;DHT22;3416;53.074;8.822;2023-04-10T13:15:39;19.50;66.70
6758;DHT22;3416;53.074;8.822;2023-04-10T13:18:06;19.20;66.40
6758;DHT22;3416;53.074;8.822;2023-04-10T13:20:35;19.00;66.70
6758;DHT22;3416;53.074;8.822;2023-04-10T13:23:02;19.20;66.60
6758;DHT22;3416;53.074;8.822;2023-04-10T13:25:32;19.30;67.10
6758;DHT22;3416;53.074;8.822;2023-04-10T13:28:00;19.60;66.20
6758;DHT22;3416;53.074;8.822;2023-04-10T13:30:27;19.40;64.10
6758;DHT22;3416;53.074;8.822;2023-04-10T13:32:56;19.40;64.10
6758;DHT22;3416;53.074;8.822;2023-04-10T13:35:23;19.20;64.90
6758;DHT22;3416;53.074;8.822;2023-04-10T13:37:50;19.20;65.90
6758;DHT22;3416;53.074;8.822;2023-04-10T13:40:19;19.40;66.10
6758;DHT22;3416;53.074;8.822;2023-04-10T13:42:47;19.60;66.00
6758;DHT22;3416;53.074;8.822;2023-04-10T13:45:14;19.80;66.30
6758;DHT22;3416;53.074;8.822;2023-04-10T13:47:41;20.00;65.50
6758;DHT22;3416;53.074;8.822;2023-04-10T13:50:10;19.80;64.50
6758;DHT22;3416;53.074;8.822;2023-04-10T13:52:37;19.60;64.70
6758;DHT22;3416;53.074;8.822;2023-04-10T13:55:04;19.80;64.80
6758;DHT22;3416;53.074;8.822;2023-04-10T13:57:32;19.70;64.90
6758;DHT22;3416;53.074;8.822;2023-04-10T13:59:59;19.70;64.40
6758;DHT22;3416;53.074;8.822;2023-04-10T14:02:26;19.80;64.80
6758;DHT22;3416;53.074;8.822;2023-04-10T14:04:53;19.90;64.60
6758;DHT22;3416;53.074;8.822;2023-04-10T14:07:21;19.80;64.10
6758;DHT22;3416;53.074;8.822;2023-04-10T14:09:48;19.90;63.30
6758;DHT22;3416;53.074;8.822;2023-04-10T14:12:15;19.70;63.20
6758;DHT22;3416;53.074;8.822;2023-04-10T14:14:43;19.40;63.00
6758;DHT22;3416;53.074;8.822;2023-04-10T14:17:11;19.30;63.00
6758;DHT22;3416;53.074;8.822;2023-04-10T14:19:38;19.40;63.50
6758;DHT22;3416;53.074;8.822;2023-04-10T14:22:05;19.30;64.20
6758;DHT22;3416;53.074;8.822;2023-04-10T14:24:33;19.10;64.30
6758;DHT22;3416;53.074;8.822;2023-04-10T14:27:00;19.00;64.30
6758;DHT22;3416;53.074;8.822;2023-04-10T14:29:27;19.10;64.10
6758;DHT22;3416;53.074;8.822;2023-04-10T14:31:57;19.00;63.40
6758;DHT22;3416;53.074;8.822;2023-04-10T14:34:24;19.00;63.20
6758;DHT22;3416;53.074;8.822;2023-04-10T14:36:51;19.30;63.80
6758;DHT22;3416;53.074;8.822;2023-04-10T14:39:21;19.40;63.50
6758;DHT22;3416;53.074;8.822;2023-04-10T14:41:51;19.30;63.20
6758;DHT22;3416;53.074;8.822;2023-04-10T14:44:18;19.10;63.30
6758;DHT22;3416;53.074;8.822;2023-04-10T14:46:45;18.90;64.20
6758;DHT22;3416;53.074;8.822;2023-04-10T14:49:12;18.80;65.00
6758;DHT22;3416;53.074;8.822;2023-04-10T14:51:42;18.90;64.70
6758;DHT22;3416;53.074;8.822;2023-04-10T14:54:09;18.90;65.30
6758;DHT22;3416;53.074;8.822;2023-04-10T14:56:36;18.80;65.30
6758;DHT22;3416;53.074;8.822;2023-04-10T14:59:04;18.70;65.80
6758;DHT22;3416;53.074;8.822;2023-04-10T15:01:33;18.60;66.50
6758;DHT22;3416;53.074;8.822;2023-04-10T15:04:00;18.40;66.40
6758;DHT22;3416;53.074;8.822;2023-04-10T15:06:27;18.30;66.00
6758;DHT22;3416;53.074;8.822;2023-04-10T15:08:57;18.40;66.80
6758;DHT22;3416;53.074;8.822;2023-04-10T15:11:24;18.40;67.10
6758;DHT22;3416;53.074;8.822;2023-04-10T15:13:51;18.50;67.50
6758;DHT22;3416;53.074;8.822;2023-04-10T15:16:19;18.50;67.50
6758;DHT22;3416;53.074;8.822;2023-04-10T15:18:46;18.40;67.50
6758;DHT22;3416;53.074;8.822;2023-04-10T15:21:14;18.40;68.10
6758;DHT22;3416;53.074;8.822;2023-04-10T15:23:41;18.40;68.50
6758;DHT22;3416;53.074;8.822;2023-04-10T15:26:11;18.50;69.40
6758;DHT22;3416;53.074;8.822;2023-04-10T15:28:39;18.60;68.80
6758;DHT22;3416;53.074;8.822;2023-04-10T15:31:06;18.50;67.80
6758;DHT22;3416;53.074;8.822;2023-04-10T15:33:34;18.60;67.70
6758;DHT22;3416;53.074;8.822;2023-04-10T15:36:04;18.60;67.50
6758;DHT22;3416;53.074;8.822;2023-04-10T15:38:33;18.70;67.40
6758;DHT22;3416;53.074;8.822;2023-04-10T15:41:07;18.80;67.20
6758;DHT22;3416;53.074;8.822;2023-04-10T15:43:34;18.90;67.10
6758;DHT22;3416;53.074;8.822;2023-04-10T15:46:01;18.90;67.30
6758;DHT22;3416;53.074;8.822;2023-04-10T15:48:28;18.90;67.80
6758;DHT22;3416;53.074;8.822;2023-04-10T15:50:57;18.60;67.70
6758;DHT22;3416;53.074;8.822;2023-04-10T15:53:24;18.50;68.50
6758;DHT22;3416;53.074;8.822;2023-04-10T15:55:51;18.50;68.90
6758;DHT22;3416;53.074;8.822;2023-04-10T15:58:18;18.40;69.10
6758;DHT22;3416;53.074;8.822;2023-04-10T16:00:45;18.30;69.30
6758;DHT22;3416;53.074;8.822;2023-04-10T16:03:12;18.30;69.20
6758;DHT22;3416;53.074;8.822;2023-04-10T16:05:39;18.30;69.70
6758;DHT22;3416;53.074;8.822;2023-04-10T16:08:07;18.20;69.80
6758;DHT22;3416;53.074;8.822;2023-04-10T16:10:34;18.10;70.50
6758;DHT22;3416;53.074;8.822;2023-04-10T16:13:01;18.10;70.20
6758;DHT22;3416;53.074;8.822;2023-04-10T16:15:32;18.20;70.60
6758;DHT22;3416;53.074;8.822;2023-04-10T16:17:59;18.20;70.30